Aérodrome :
LOGIN :

S'inscrire | Disclaimer

   EN    FR    IT 

 










Légende :    VFR   VFR Marginal   IFR   IFR Intensif   IFR Très Intensif
Visi : 
Plafond : 
>= 8 km
>= 3000ft
5 à 8 km
1000 à 3000 ft
1500m à 5 km
500 à 1000 ft
800 à 1500m
200 à 500 ft
< 800m
< 200 ft
Symboles :   Orages  Brouillard  Fortes neiges  Fortes précipitations  Vent > 20 kt
SIGMETs :   Divers  Orages  Givrage  Turbulence  Onde Orograph.  Cendres Volcan.







- Altitude de l'aérodrome : 650 ft
- Code IATA : ZJI


LSZL - Locarno

DERNIER METAR :
  • 161420Z 27004KT 230V300 9999 FEW050 26/20 Q1016 RMK BLU+

METARs EXPIRÉS :
  • 161350Z 27003KT 220V320 9999 FEW050 26/20 Q1017 RMK BLU+
  • 161320Z 27004KT 240V300 9999 FEW050 26/19 Q1017 RMK BLU+
  • 161250Z 25005KT 200V280 9999 FEW050 25/19 Q1018 RMK BLU+
  • 161220Z 26004KT 220V290 9999 FEW070 25/18 Q1018 RMK BLU+
  • 161150Z 26005KT 210V290 9999 FEW070 25/17 Q1018 RMK BLU+

TAF TAF LSZL
Valide du 16 à 12h jusqu'au 16 à 21h UTC


161125Z 1612/1621 26005KT 9999 FEW050
Pas de NOTAMs connus pour ce terrain.



MET'MAP, la Météo Aéronautique d'un coup d'oeil ! - Copyright ORBIFLY Décembre 2007 - Disclaimer

ORBIFLY MET'MAP TEAM :

Programmation & Développement : Alexandra Zaïnal
Conception & Développement : Baudouin d'Aumeries
Co-Programmation & Développement : Marc-Olivier Méhu
Soutien technique & logistique : Manuel Goepfert

Contact : metmap@orbifly.com




SOURCES & CREDITS :

   NOAA